Time,TemperatureF,DewpointF,PressureIn,WindDirection,WindDirectionDegrees,WindSpeedMPH,WindSpeedGustMPH,Humidity,HourlyPrecipIn,Conditions,Clouds,dailyrainin,SoftwareType,DateUTC
2013-02-01 00:01:00,44.0,35.0,-100.00,WSW,250,8.0,12.0,70,-99.99,,,-99.99,,2013-02-01 08:01:00,
2013-02-01 01:01:00,45.0,34.0,-100.00,WSW,245,8.0,13.0,65,-99.99,,,-99.99,,2013-02-01 09:01:00,
2013-02-01 02:01:00,43.0,33.0,-100.00,WSW,245,7.0,13.0,67,-99.99,,,-99.99,,2013-02-01 10:01:00,
2013-02-01 03:01:00,43.0,33.0,-100.00,WSW,255,7.0,10.0,67,-99.99,,,-99.99,,2013-02-01 11:01:00,
2013-02-01 04:02:00,39.0,30.0,-100.00,East,85,1.0,9.0,69,-99.99,,,-99.99,,2013-02-01 12:02:00,
2013-02-01 04:12:00,39.0,30.0,-100.00,East,85,1.0,9.0,69,-99.99,,,-99.99,,2013-02-01 12:12:00,
2013-02-01 05:02:00,36.0,31.0,-100.00,ESE,115,1.0,5.0,81,-99.99,,,-99.99,,2013-02-01 13:02:00,
2013-02-01 05:11:00,36.0,31.0,-100.00,ESE,115,1.0,5.0,81,-99.99,,,-99.99,,2013-02-01 13:11:00,
2013-02-01 06:03:00,35.0,29.0,-100.00,ESE,120,5.0,5.0,78,-99.99,,,-99.99,,2013-02-01 14:03:00,
2013-02-01 06:11:00,35.0,29.0,-100.00,ESE,120,5.0,5.0,78,-99.99,,,-99.99,,2013-02-01 14:11:00,
2013-02-01 07:02:00,36.0,29.0,-100.00,ENE,75,1.0,3.0,75,-99.99,,,-99.99,,2013-02-01 15:02:00,
2013-02-01 07:10:00,34.0,28.0,-100.00,ENE,70,3.0,6.0,78,-99.99,,,-99.99,,2013-02-01 15:10:00,
2013-02-01 07:12:00,36.0,29.0,-100.00,ENE,75,1.0,3.0,75,-99.99,,,-99.99,,2013-02-01 15:12:00,
2013-02-01 08:02:00,34.0,28.0,-100.00,ENE,70,3.0,6.0,78,-99.99,,,-99.99,,2013-02-01 16:02:00,
2013-02-01 09:02:00,31.0,28.0,-100.00,ESE,115,2.0,3.0,88,-99.99,,,-99.99,,2013-02-01 17:02:00,
2013-02-01 09:11:00,31.0,28.0,-100.00,ESE,115,2.0,3.0,88,-99.99,,,-99.99,,2013-02-01 17:11:00,
2013-02-01 09:20:00,35.0,30.0,-100.00,NE,50,5.0,5.0,81,-99.99,,,-99.99,,2013-02-01 17:20:00,
2013-02-01 10:02:00,35.0,30.0,-100.00,NE,50,5.0,5.0,81,-99.99,,,-99.99,,2013-02-01 18:02:00,
2013-02-01 10:12:00,35.0,30.0,-100.00,NE,50,5.0,5.0,81,-99.99,,,-99.99,,2013-02-01 18:12:00,
2013-02-01 11:02:00,38.0,33.0,-100.00,NE,50,3.0,6.0,82,-99.99,,,-99.99,,2013-02-01 19:02:00,
2013-02-01 11:11:00,38.0,33.0,-100.00,NE,50,3.0,6.0,82,-99.99,,,-99.99,,2013-02-01 19:11:00,
2013-02-01 12:02:00,43.0,34.0,-100.00,ENE,60,6.0,7.0,70,-99.99,,,-99.99,,2013-02-01 20:02:00,
2013-02-01 12:11:00,43.0,34.0,-100.00,ENE,60,6.0,7.0,70,-99.99,,,-99.99,,2013-02-01 20:11:00,
2013-02-01 13:02:00,43.0,35.0,-100.00,ENE,60,5.0,7.0,73,-99.99,,,-99.99,,2013-02-01 21:02:00,
2013-02-01 13:11:00,43.0,35.0,-100.00,ENE,60,5.0,7.0,73,-99.99,,,-99.99,,2013-02-01 21:11:00,
2013-02-01 14:02:00,46.0,34.0,-100.00,East,95,3.0,5.0,62,-99.99,,,-99.99,,2013-02-01 22:02:00,
2013-02-01 14:10:00,48.0,36.0,-100.00,East,85,3.0,9.0,62,-99.99,,,-99.99,,2013-02-01 22:10:00,
2013-02-01 14:11:00,46.0,34.0,-100.00,East,95,3.0,5.0,62,-99.99,,,-99.99,,2013-02-01 22:11:00,
2013-02-01 15:01:00,48.0,36.0,-100.00,East,85,3.0,9.0,62,-99.99,,,-99.99,,2013-02-01 23:01:00,
2013-02-01 16:02:00,48.0,36.0,-100.00,NE,40,7.0,9.0,62,-99.99,,,-99.99,,2013-02-02 00:02:00,
2013-02-01 16:10:00,46.0,36.0,-100.00,NE,50,7.0,10.0,67,-99.99,,,-99.99,,2013-02-02 00:10:00,
2013-02-01 16:11:00,48.0,36.0,-100.00,NE,40,7.0,9.0,62,-99.99,,,-99.99,,2013-02-02 00:11:00,
2013-02-01 17:02:00,46.0,36.0,-100.00,NE,50,7.0,10.0,67,-99.99,,,-99.99,,2013-02-02 01:02:00,
2013-02-01 18:01:00,39.0,33.0,-100.00,ENE,65,3.0,3.0,78,-99.99,,,-99.99,,2013-02-02 02:01:00,
2013-02-01 18:11:00,39.0,33.0,-100.00,ENE,65,3.0,3.0,78,-99.99,,,-99.99,,2013-02-02 02:11:00,
2013-02-01 19:02:00,37.0,31.0,-100.00,East,85,6.0,6.0,78,-99.99,,,-99.99,,2013-02-02 03:02:00,
2013-02-01 19:11:00,37.0,31.0,-100.00,East,85,6.0,6.0,78,-99.99,,,-99.99,,2013-02-02 03:11:00,
2013-02-01 20:01:00,35.0,30.0,-100.00,ESE,105,7.0,8.0,81,-99.99,,,-99.99,,2013-02-02 04:01:00,
2013-02-01 20:11:00,35.0,30.0,-100.00,ESE,105,7.0,8.0,81,-99.99,,,-99.99,,2013-02-02 04:11:00,
2013-02-01 21:03:00,36.0,30.0,-100.00,ESE,110,6.0,7.0,78,-99.99,,,-99.99,,2013-02-02 05:03:00,
2013-02-01 21:10:00,35.0,29.0,-100.00,ESE,110,7.0,9.0,78,-99.99,,,-99.99,,2013-02-02 05:10:00,
2013-02-01 21:11:00,36.0,30.0,-100.00,ESE,110,6.0,7.0,78,-99.99,,,-99.99,,2013-02-02 05:11:00,
2013-02-01 22:02:00,35.0,29.0,-100.00,ESE,110,7.0,9.0,78,-99.99,,,-99.99,,2013-02-02 06:02:00,
2013-02-01 23:02:00,34.0,29.0,-100.00,NE,55,3.0,5.0,81,-99.99,,,-99.99,,2013-02-02 07:02:00,
2013-02-01 23:10:00,32.0,28.0,-100.00,East,90,5.0,6.0,84,-99.99,,,-99.99,,2013-02-02 07:10:00,
2013-02-01 23:11:00,34.0,29.0,-100.00,NE,55,3.0,5.0,81,-99.99,,,-99.99,,2013-02-02 07:11:00,